sensor_id;sensor_type;location;lat;lon;timestamp;P1;durP1;ratioP1;P2;durP2;ratioP2
7213;SDS011;3648;50.614;13.830;2023-02-15T00:01:29;41.80;;;24.10;;
7213;SDS011;3648;50.614;13.830;2023-02-15T00:03:56;40.90;;;23.13;;
7213;SDS011;3648;50.614;13.830;2023-02-15T00:06:23;42.43;;;22.83;;
7213;SDS011;3648;50.614;13.830;2023-02-15T00:08:50;41.37;;;22.13;;
7213;SDS011;3648;50.614;13.830;2023-02-15T00:11:17;45.03;;;22.57;;
7213;SDS011;3648;50.614;13.830;2023-02-15T00:14:04;36.47;;;20.97;;
7213;SDS011;3648;50.614;13.830;2023-02-15T00:16:33;39.63;;;22.33;;
7213;SDS011;3648;50.614;13.830;2023-02-15T00:19:00;37.90;;;19.77;;
7213;SDS011;3648;50.614;13.830;2023-02-15T00:21:27;39.43;;;21.80;;
7213;SDS011;3648;50.614;13.830;2023-02-15T00:23:55;35.13;;;19.60;;
7213;SDS011;3648;50.614;13.830;2023-02-15T00:26:22;39.10;;;21.77;;
7213;SDS011;3648;50.614;13.830;2023-02-15T00:28:50;36.73;;;19.87;;
7213;SDS011;3648;50.614;13.830;2023-02-15T00:31:16;34.60;;;19.33;;
7213;SDS011;3648;50.614;13.830;2023-02-15T00:33:45;34.37;;;17.87;;
7213;SDS011;3648;50.614;13.830;2023-02-15T00:36:13;35.37;;;19.97;;
7213;SDS011;3648;50.614;13.830;2023-02-15T00:38:40;35.57;;;18.97;;
7213;SDS011;3648;50.614;13.830;2023-02-15T00:41:07;33.30;;;19.03;;
7213;SDS011;3648;50.614;13.830;2023-02-15T00:43:35;38.60;;;20.47;;
7213;SDS011;3648;50.614;13.830;2023-02-15T00:46:02;35.97;;;19.80;;
7213;SDS011;3648;50.614;13.830;2023-02-15T00:48:30;46.20;;;22.60;;
7213;SDS011;3648;50.614;13.830;2023-02-15T00:50:58;36.13;;;19.90;;
7213;SDS011;3648;50.614;13.830;2023-02-15T00:53:26;34.63;;;20.33;;
7213;SDS011;3648;50.614;13.830;2023-02-15T00:55:54;37.27;;;20.30;;
7213;SDS011;3648;50.614;13.830;2023-02-15T00:58:21;31.03;;;18.30;;
7213;SDS011;3648;50.614;13.830;2023-02-15T01:00:48;29.87;;;17.73;;
7213;SDS011;3648;50.614;13.830;2023-02-15T01:03:16;31.80;;;18.33;;
7213;SDS011;3648;50.614;13.830;2023-02-15T01:05:44;33.10;;;19.50;;
7213;SDS011;3648;50.614;13.830;2023-02-15T01:08:14;30.50;;;17.70;;
7213;SDS011;3648;50.614;13.830;2023-02-15T01:10:41;30.93;;;18.70;;
7213;SDS011;3648;50.614;13.830;2023-02-15T01:13:09;41.10;;;21.67;;
7213;SDS011;3648;50.614;13.830;2023-02-15T01:15:36;31.80;;;19.13;;
7213;SDS011;3648;50.614;13.830;2023-02-15T01:18:03;27.20;;;16.37;;
7213;SDS011;3648;50.614;13.830;2023-02-15T01:20:30;32.23;;;17.80;;
7213;SDS011;3648;50.614;13.830;2023-02-15T01:23:00;32.17;;;17.13;;
7213;SDS011;3648;50.614;13.830;2023-02-15T01:25:28;29.27;;;16.93;;
7213;SDS011;3648;50.614;13.830;2023-02-15T01:27:55;30.83;;;17.20;;
7213;SDS011;3648;50.614;13.830;2023-02-15T01:30:22;29.30;;;16.23;;
7213;SDS011;3648;50.614;13.830;2023-02-15T01:32:49;31.70;;;17.07;;
7213;SDS011;3648;50.614;13.830;2023-02-15T01:35:16;28.10;;;16.83;;
7213;SDS011;3648;50.614;13.830;2023-02-15T01:37:43;33.07;;;18.27;;
7213;SDS011;3648;50.614;13.830;2023-02-15T01:40:12;32.17;;;17.43;;
7213;SDS011;3648;50.614;13.830;2023-02-15T01:42:42;30.30;;;17.37;;
7213;SDS011;3648;50.614;13.830;2023-02-15T01:45:14;33.70;;;18.50;;
7213;SDS011;3648;50.614;13.830;2023-02-15T01:47:47;36.63;;;18.43;;
7213;SDS011;3648;50.614;13.830;2023-02-15T01:50:19;32.27;;;17.83;;
7213;SDS011;3648;50.614;13.830;2023-02-15T01:52:50;37.47;;;20.40;;
7213;SDS011;3648;50.614;13.830;2023-02-15T01:55:22;32.07;;;17.53;;
7213;SDS011;3648;50.614;13.830;2023-02-15T01:57:52;35.87;;;17.67;;
7213;SDS011;3648;50.614;13.830;2023-02-15T02:00:20;36.77;;;18.40;;
7213;SDS011;3648;50.614;13.830;2023-02-15T02:02:48;35.33;;;19.17;;
7213;SDS011;3648;50.614;13.830;2023-02-15T02:05:17;37.20;;;18.20;;
7213;SDS011;3648;50.614;13.830;2023-02-15T02:07:45;40.77;;;17.73;;
7213;SDS011;3648;50.614;13.830;2023-02-15T02:10:15;30.30;;;16.60;;
7213;SDS011;3648;50.614;13.830;2023-02-15T02:12:44;33.07;;;19.70;;
7213;SDS011;3648;50.614;13.830;2023-02-15T02:15:15;39.30;;;19.13;;
7213;SDS011;3648;50.614;13.830;2023-02-15T02:17:45;33.23;;;18.30;;
7213;SDS011;3648;50.614;13.830;2023-02-15T02:20:26;33.90;;;16.70;;
7213;SDS011;3648;50.614;13.830;2023-02-15T02:26:20;37.13;;;17.03;;
7213;SDS011;3648;50.614;13.830;2023-02-15T02:29:22;30.23;;;16.27;;
7213;SDS011;3648;50.614;13.830;2023-02-15T02:32:16;29.83;;;15.47;;
7213;SDS011;3648;50.614;13.830;2023-02-15T02:35:10;31.10;;;17.60;;
7213;SDS011;3648;50.614;13.830;2023-02-15T02:37:43;27.17;;;15.27;;
7213;SDS011;3648;50.614;13.830;2023-02-15T02:40:17;29.53;;;14.97;;
7213;SDS011;3648;50.614;13.830;2023-02-15T02:42:53;26.83;;;14.73;;
7213;SDS011;3648;50.614;13.830;2023-02-15T02:45:26;31.97;;;16.13;;
7213;SDS011;3648;50.614;13.830;2023-02-15T02:47:59;27.33;;;16.43;;
7213;SDS011;3648;50.614;13.830;2023-02-15T02:50:33;27.33;;;15.00;;
7213;SDS011;3648;50.614;13.830;2023-02-15T02:53:00;30.37;;;16.27;;
7213;SDS011;3648;50.614;13.830;2023-02-15T02:55:28;27.43;;;15.93;;
7213;SDS011;3648;50.614;13.830;2023-02-15T02:57:58;29.90;;;16.20;;
7213;SDS011;3648;50.614;13.830;2023-02-15T03:00:29;25.90;;;15.53;;
7213;SDS011;3648;50.614;13.830;2023-02-15T03:03:00;25.47;;;13.83;;
7213;SDS011;3648;50.614;13.830;2023-02-15T03:05:33;26.43;;;14.00;;
7213;SDS011;3648;50.614;13.830;2023-02-15T03:08:02;27.70;;;14.63;;
7213;SDS011;3648;50.614;13.830;2023-02-15T03:10:34;25.20;;;14.30;;
7213;SDS011;3648;50.614;13.830;2023-02-15T03:13:02;27.67;;;15.30;;
7213;SDS011;3648;50.614;13.830;2023-02-15T03:15:31;25.43;;;15.47;;
7213;SDS011;3648;50.614;13.830;2023-02-15T03:18:15;25.47;;;14.40;;
7213;SDS011;3648;50.614;13.830;2023-02-15T03:20:47;25.93;;;14.83;;
7213;SDS011;3648;50.614;13.830;2023-02-15T03:23:17;27.60;;;15.70;;
7213;SDS011;3648;50.614;13.830;2023-02-15T03:25:48;29.73;;;15.03;;
7213;SDS011;3648;50.614;13.830;2023-02-15T03:28:19;24.60;;;13.23;;
7213;SDS011;3648;50.614;13.830;2023-02-15T03:30:52;27.57;;;14.50;;
7213;SDS011;3648;50.614;13.830;2023-02-15T03:33:22;25.57;;;14.57;;
7213;SDS011;3648;50.614;13.830;2023-02-15T03:35:52;28.30;;;15.93;;
7213;SDS011;3648;50.614;13.830;2023-02-15T03:38:25;30.90;;;16.20;;
7213;SDS011;3648;50.614;13.830;2023-02-15T03:40:55;30.03;;;15.47;;
7213;SDS011;3648;50.614;13.830;2023-02-15T03:43:40;30.63;;;15.77;;
7213;SDS011;3648;50.614;13.830;2023-02-15T03:46:15;30.53;;;16.10;;
7213;SDS011;3648;50.614;13.830;2023-02-15T03:48:50;28.90;;;15.70;;
7213;SDS011;3648;50.614;13.830;2023-02-15T03:51:21;26.53;;;15.20;;
7213;SDS011;3648;50.614;13.830;2023-02-15T03:54:01;28.60;;;14.80;;
7213;SDS011;3648;50.614;13.830;2023-02-15T03:56:31;28.10;;;15.00;;
7213;SDS011;3648;50.614;13.830;2023-02-15T03:59:00;32.37;;;16.93;;
7213;SDS011;3648;50.614;13.830;2023-02-15T04:01:46;29.47;;;17.03;;
7213;SDS011;3648;50.614;13.830;2023-02-15T04:04:25;32.37;;;16.40;;
7213;SDS011;3648;50.614;13.830;2023-02-15T04:07:01;28.30;;;15.70;;
7213;SDS011;3648;50.614;13.830;2023-02-15T04:09:29;30.37;;;15.43;;
7213;SDS011;3648;50.614;13.830;2023-02-15T04:12:13;27.30;;;15.50;;
7213;SDS011;3648;50.614;13.830;2023-02-15T04:14:40;30.87;;;16.00;;
7213;SDS011;3648;50.614;13.830;2023-02-15T04:17:25;30.53;;;16.23;;
7213;SDS011;3648;50.614;13.830;2023-02-15T04:19:52;30.07;;;16.43;;
7213;SDS011;3648;50.614;13.830;2023-02-15T04:22:37;31.67;;;18.17;;
7213;SDS011;3648;50.614;13.830;2023-02-15T04:25:21;31.80;;;17.63;;
7213;SDS011;3648;50.614;13.830;2023-02-15T04:27:49;30.73;;;16.97;;
7213;SDS011;3648;50.614;13.830;2023-02-15T04:30:18;29.60;;;16.80;;
7213;SDS011;3648;50.614;13.830;2023-02-15T04:32:47;25.70;;;15.73;;
7213;SDS011;3648;50.614;13.830;2023-02-15T04:35:14;31.73;;;15.63;;
7213;SDS011;3648;50.614;13.830;2023-02-15T04:37:43;31.30;;;15.90;;
7213;SDS011;3648;50.614;13.830;2023-02-15T04:40:11;26.57;;;15.43;;
7213;SDS011;3648;50.614;13.830;2023-02-15T04:42:39;25.30;;;14.90;;
7213;SDS011;3648;50.614;13.830;2023-02-15T04:45:07;33.20;;;17.43;;
7213;SDS011;3648;50.614;13.830;2023-02-15T04:47:34;26.30;;;14.97;;
7213;SDS011;3648;50.614;13.830;2023-02-15T04:50:01;27.17;;;16.70;;
7213;SDS011;3648;50.614;13.830;2023-02-15T04:52:29;32.17;;;17.40;;
7213;SDS011;3648;50.614;13.830;2023-02-15T04:54:57;28.57;;;16.67;;
7213;SDS011;3648;50.614;13.830;2023-02-15T04:57:24;39.13;;;23.27;;
7213;SDS011;3648;50.614;13.830;2023-02-15T04:59:51;34.37;;;19.40;;
7213;SDS011;3648;50.614;13.830;2023-02-15T05:02:18;39.27;;;18.63;;
7213;SDS011;3648;50.614;13.830;2023-02-15T05:04:45;40.30;;;20.30;;
7213;SDS011;3648;50.614;13.830;2023-02-15T05:07:12;43.83;;;22.43;;
7213;SDS011;3648;50.614;13.830;2023-02-15T05:09:39;43.97;;;22.33;;
7213;SDS011;3648;50.614;13.830;2023-02-15T05:12:08;32.93;;;17.43;;
7213;SDS011;3648;50.614;13.830;2023-02-15T05:14:35;40.50;;;18.57;;
7213;SDS011;3648;50.614;13.830;2023-02-15T05:17:02;36.00;;;18.47;;
7213;SDS011;3648;50.614;13.830;2023-02-15T05:19:30;32.73;;;18.43;;
7213;SDS011;3648;50.614;13.830;2023-02-15T05:21:57;32.63;;;16.00;;
7213;SDS011;3648;50.614;13.830;2023-02-15T05:24:24;30.57;;;15.73;;
7213;SDS011;3648;50.614;13.830;2023-02-15T05:27:11;30.43;;;17.07;;
7213;SDS011;3648;50.614;13.830;2023-02-15T05:29:56;31.37;;;16.60;;
7213;SDS011;3648;50.614;13.830;2023-02-15T05:32:23;34.43;;;16.97;;
7213;SDS011;3648;50.614;13.830;2023-02-15T05:34:50;36.13;;;16.50;;
7213;SDS011;3648;50.614;13.830;2023-02-15T05:37:17;40.00;;;18.50;;
7213;SDS011;3648;50.614;13.830;2023-02-15T05:39:44;35.00;;;17.20;;
7213;SDS011;3648;50.614;13.830;2023-02-15T05:42:12;32.63;;;16.63;;
7213;SDS011;3648;50.614;13.830;2023-02-15T05:44:39;33.80;;;17.37;;
7213;SDS011;3648;50.614;13.830;2023-02-15T05:47:06;28.90;;;16.40;;
7213;SDS011;3648;50.614;13.830;2023-02-15T05:49:33;34.90;;;17.00;;
7213;SDS011;3648;50.614;13.830;2023-02-15T05:52:00;31.93;;;17.13;;
7213;SDS011;3648;50.614;13.830;2023-02-15T05:54:27;32.17;;;17.13;;
7213;SDS011;3648;50.614;13.830;2023-02-15T05:56:54;33.53;;;16.57;;
7213;SDS011;3648;50.614;13.830;2023-02-15T05:59:23;31.73;;;16.63;;
7213;SDS011;3648;50.614;13.830;2023-02-15T06:01:50;33.87;;;17.67;;
7213;SDS011;3648;50.614;13.830;2023-02-15T06:04:17;35.67;;;17.90;;
7213;SDS011;3648;50.614;13.830;2023-02-15T06:06:44;38.30;;;17.07;;
7213;SDS011;3648;50.614;13.830;2023-02-15T06:09:11;39.30;;;17.40;;
7213;SDS011;3648;50.614;13.830;2023-02-15T06:11:38;35.23;;;16.60;;
7213;SDS011;3648;50.614;13.830;2023-02-15T06:14:05;36.70;;;17.07;;
7213;SDS011;3648;50.614;13.830;2023-02-15T06:16:34;53.77;;;18.90;;
7213;SDS011;3648;50.614;13.830;2023-02-15T06:19:01;40.63;;;16.73;;
7213;SDS011;3648;50.614;13.830;2023-02-15T06:21:29;28.93;;;16.50;;
7213;SDS011;3648;50.614;13.830;2023-02-15T06:23:55;33.30;;;18.63;;
7213;SDS011;3648;50.614;13.830;2023-02-15T06:26:23;29.33;;;16.73;;
7213;SDS011;3648;50.614;13.830;2023-02-15T06:28:49;28.67;;;17.10;;
7213;SDS011;3648;50.614;13.830;2023-02-15T06:31:16;29.83;;;16.97;;
7213;SDS011;3648;50.614;13.830;2023-02-15T06:33:45;30.87;;;16.80;;
7213;SDS011;3648;50.614;13.830;2023-02-15T06:36:12;27.77;;;16.13;;
7213;SDS011;3648;50.614;13.830;2023-02-15T06:38:39;25.80;;;15.70;;
7213;SDS011;3648;50.614;13.830;2023-02-15T06:41:05;33.80;;;18.07;;
7213;SDS011;3648;50.614;13.830;2023-02-15T06:43:32;27.30;;;15.87;;
7213;SDS011;3648;50.614;13.830;2023-02-15T06:46:00;30.40;;;17.67;;
7213;SDS011;3648;50.614;13.830;2023-02-15T06:48:27;27.33;;;16.40;;
7213;SDS011;3648;50.614;13.830;2023-02-15T06:50:55;29.30;;;16.10;;
7213;SDS011;3648;50.614;13.830;2023-02-15T06:53:22;28.77;;;16.57;;
7213;SDS011;3648;50.614;13.830;2023-02-15T06:55:49;26.60;;;16.43;;
7213;SDS011;3648;50.614;13.830;2023-02-15T06:58:16;27.60;;;15.00;;
7213;SDS011;3648;50.614;13.830;2023-02-15T07:00:43;26.03;;;14.20;;
7213;SDS011;3648;50.614;13.830;2023-02-15T07:03:12;24.97;;;14.93;;
7213;SDS011;3648;50.614;13.830;2023-02-15T07:05:39;24.93;;;14.40;;
7213;SDS011;3648;50.614;13.830;2023-02-15T07:08:08;25.93;;;15.97;;
7213;SDS011;3648;50.614;13.830;2023-02-15T07:10:35;31.00;;;18.47;;
7213;SDS011;3648;50.614;13.830;2023-02-15T07:13:02;33.93;;;19.77;;
7213;SDS011;3648;50.614;13.830;2023-02-15T07:15:28;33.63;;;21.07;;
7213;SDS011;3648;50.614;13.830;2023-02-15T07:17:56;34.67;;;20.20;;
7213;SDS011;3648;50.614;13.830;2023-02-15T07:20:24;65.23;;;32.77;;
7213;SDS011;3648;50.614;13.830;2023-02-15T07:22:51;51.53;;;28.67;;
7213;SDS011;3648;50.614;13.830;2023-02-15T07:25:20;36.43;;;20.20;;
7213;SDS011;3648;50.614;13.830;2023-02-15T07:27:47;30.70;;;17.80;;
7213;SDS011;3648;50.614;13.830;2023-02-15T07:30:15;31.70;;;17.70;;
7213;SDS011;3648;50.614;13.830;2023-02-15T07:32:42;33.73;;;17.47;;
7213;SDS011;3648;50.614;13.830;2023-02-15T07:35:27;27.33;;;15.70;;
7213;SDS011;3648;50.614;13.830;2023-02-15T07:37:54;26.47;;;15.90;;
7213;SDS011;3648;50.614;13.830;2023-02-15T07:40:22;28.80;;;16.70;;
7213;SDS011;3648;50.614;13.830;2023-02-15T07:42:50;28.43;;;16.63;;
7213;SDS011;3648;50.614;13.830;2023-02-15T07:45:19;29.20;;;18.83;;
7213;SDS011;3648;50.614;13.830;2023-02-15T07:47:47;24.20;;;16.10;;
7213;SDS011;3648;50.614;13.830;2023-02-15T07:50:14;26.20;;;15.37;;
7213;SDS011;3648;50.614;13.830;2023-02-15T07:52:41;23.53;;;14.40;;
7213;SDS011;3648;50.614;13.830;2023-02-15T07:55:08;30.33;;;17.87;;
7213;SDS011;3648;50.614;13.830;2023-02-15T07:57:39;26.73;;;16.03;;
7213;SDS011;3648;50.614;13.830;2023-02-15T08:00:09;24.73;;;15.80;;
7213;SDS011;3648;50.614;13.830;2023-02-15T08:02:38;29.70;;;17.37;;
7213;SDS011;3648;50.614;13.830;2023-02-15T08:05:05;22.97;;;13.97;;
7213;SDS011;3648;50.614;13.830;2023-02-15T08:07:33;20.30;;;12.63;;
7213;SDS011;3648;50.614;13.830;2023-02-15T08:10:00;24.57;;;13.53;;
7213;SDS011;3648;50.614;13.830;2023-02-15T08:12:27;33.00;;;19.53;;
7213;SDS011;3648;50.614;13.830;2023-02-15T08:14:55;29.70;;;18.60;;
7213;SDS011;3648;50.614;13.830;2023-02-15T08:17:22;37.33;;;21.83;;
7213;SDS011;3648;50.614;13.830;2023-02-15T08:19:49;56.77;;;29.03;;
7213;SDS011;3648;50.614;13.830;2023-02-15T08:22:17;47.40;;;26.17;;
7213;SDS011;3648;50.614;13.830;2023-02-15T08:24:44;26.37;;;16.30;;
7213;SDS011;3648;50.614;13.830;2023-02-15T08:27:12;26.03;;;15.20;;
7213;SDS011;3648;50.614;13.830;2023-02-15T08:29:39;31.03;;;17.20;;
7213;SDS011;3648;50.614;13.830;2023-02-15T08:32:09;28.67;;;16.30;;
7213;SDS011;3648;50.614;13.830;2023-02-15T08:34:39;32.43;;;16.37;;
7213;SDS011;3648;50.614;13.830;2023-02-15T08:37:07;25.23;;;15.40;;
7213;SDS011;3648;50.614;13.830;2023-02-15T08:39:34;23.63;;;14.53;;
7213;SDS011;3648;50.614;13.830;2023-02-15T08:42:02;23.10;;;15.17;;
7213;SDS011;3648;50.614;13.830;2023-02-15T08:44:29;27.77;;;18.83;;
7213;SDS011;3648;50.614;13.830;2023-02-15T08:46:56;29.50;;;17.30;;
7213;SDS011;3648;50.614;13.830;2023-02-15T08:49:29;30.23;;;18.83;;
7213;SDS011;3648;50.614;13.830;2023-02-15T08:51:56;29.80;;;18.50;;
7213;SDS011;3648;50.614;13.830;2023-02-15T08:54:23;24.97;;;14.67;;
7213;SDS011;3648;50.614;13.830;2023-02-15T08:56:50;27.03;;;17.10;;
7213;SDS011;3648;50.614;13.830;2023-02-15T08:59:18;24.00;;;14.50;;
7213;SDS011;3648;50.614;13.830;2023-02-15T09:01:47;26.63;;;16.67;;
7213;SDS011;3648;50.614;13.830;2023-02-15T09:04:16;52.07;;;28.23;;
7213;SDS011;3648;50.614;13.830;2023-02-15T09:06:44;38.13;;;19.53;;
7213;SDS011;3648;50.614;13.830;2023-02-15T09:09:16;32.00;;;19.27;;
7213;SDS011;3648;50.614;13.830;2023-02-15T09:11:45;28.10;;;17.03;;
7213;SDS011;3648;50.614;13.830;2023-02-15T09:14:14;24.90;;;15.77;;
7213;SDS011;3648;50.614;13.830;2023-02-15T09:16:43;29.73;;;18.00;;
7213;SDS011;3648;50.614;13.830;2023-02-15T09:19:13;34.97;;;19.27;;
7213;SDS011;3648;50.614;13.830;2023-02-15T09:21:41;32.43;;;18.33;;
7213;SDS011;3648;50.614;13.830;2023-02-15T09:24:10;30.07;;;19.57;;
7213;SDS011;3648;50.614;13.830;2023-02-15T09:26:40;26.37;;;16.73;;
7213;SDS011;3648;50.614;13.830;2023-02-15T09:29:11;22.57;;;14.90;;
7213;SDS011;3648;50.614;13.830;2023-02-15T09:31:39;23.57;;;16.50;;
7213;SDS011;3648;50.614;13.830;2023-02-15T09:34:09;23.07;;;14.80;;
7213;SDS011;3648;50.614;13.830;2023-02-15T09:36:36;21.40;;;14.23;;
7213;SDS011;3648;50.614;13.830;2023-02-15T09:39:06;22.70;;;14.57;;
7213;SDS011;3648;50.614;13.830;2023-02-15T09:44:50;22.33;;;15.60;;
7213;SDS011;3648;50.614;13.830;2023-02-15T09:47:38;26.47;;;17.83;;
7213;SDS011;3648;50.614;13.830;2023-02-15T09:50:16;23.07;;;15.47;;
7213;SDS011;3648;50.614;13.830;2023-02-15T09:52:55;23.10;;;15.30;;
7213;SDS011;3648;50.614;13.830;2023-02-15T09:55:38;22.60;;;15.47;;
7213;SDS011;3648;50.614;13.830;2023-02-15T09:58:17;22.30;;;14.83;;
7213;SDS011;3648;50.614;13.830;2023-02-15T10:00:57;23.07;;;16.60;;
7213;SDS011;3648;50.614;13.830;2023-02-15T10:03:38;22.17;;;17.03;;
7213;SDS011;3648;50.614;13.830;2023-02-15T10:06:32;20.87;;;14.73;;
7213;SDS011;3648;50.614;13.830;2023-02-15T10:09:10;22.83;;;15.00;;
7213;SDS011;3648;50.614;13.830;2023-02-15T10:11:56;18.87;;;12.13;;
7213;SDS011;3648;50.614;13.830;2023-02-15T10:14:38;19.60;;;13.40;;
7213;SDS011;3648;50.614;13.830;2023-02-15T10:17:32;19.87;;;14.13;;
7213;SDS011;3648;50.614;13.830;2023-02-15T10:20:12;18.73;;;13.53;;
7213;SDS011;3648;50.614;13.830;2023-02-15T10:22:52;21.93;;;13.97;;
7213;SDS011;3648;50.614;13.830;2023-02-15T10:25:38;25.20;;;15.87;;
7213;SDS011;3648;50.614;13.830;2023-02-15T10:28:11;21.40;;;15.23;;
7213;SDS011;3648;50.614;13.830;2023-02-15T10:30:45;19.67;;;14.97;;
7213;SDS011;3648;50.614;13.830;2023-02-15T10:33:18;23.77;;;15.73;;
7213;SDS011;3648;50.614;13.830;2023-02-15T10:36:01;21.87;;;14.17;;
7213;SDS011;3648;50.614;13.830;2023-02-15T10:38:47;23.60;;;15.87;;
7213;SDS011;3648;50.614;13.830;2023-02-15T10:41:24;30.13;;;18.33;;
7213;SDS011;3648;50.614;13.830;2023-02-15T10:44:05;29.20;;;19.53;;
7213;SDS011;3648;50.614;13.830;2023-02-15T10:49:39;27.33;;;17.83;;
7213;SDS011;3648;50.614;13.830;2023-02-15T10:52:21;25.20;;;16.90;;
7213;SDS011;3648;50.614;13.830;2023-02-15T10:55:02;22.83;;;15.83;;
7213;SDS011;3648;50.614;13.830;2023-02-15T10:57:37;25.53;;;16.80;;
7213;SDS011;3648;50.614;13.830;2023-02-15T11:00:12;23.97;;;15.57;;
7213;SDS011;3648;50.614;13.830;2023-02-15T11:02:48;20.03;;;13.57;;
7213;SDS011;3648;50.614;13.830;2023-02-15T11:05:26;22.27;;;13.97;;
7213;SDS011;3648;50.614;13.830;2023-02-15T11:08:03;20.77;;;13.03;;
7213;SDS011;3648;50.614;13.830;2023-02-15T11:10:35;18.93;;;12.97;;
7213;SDS011;3648;50.614;13.830;2023-02-15T11:13:08;24.07;;;15.53;;
7213;SDS011;3648;50.614;13.830;2023-02-15T11:15:39;25.87;;;17.80;;
7213;SDS011;3648;50.614;13.830;2023-02-15T11:18:11;25.60;;;17.10;;
7213;SDS011;3648;50.614;13.830;2023-02-15T11:20:44;26.67;;;17.57;;
7213;SDS011;3648;50.614;13.830;2023-02-15T11:23:18;24.70;;;16.03;;
7213;SDS011;3648;50.614;13.830;2023-02-15T11:25:46;20.57;;;14.77;;
7213;SDS011;3648;50.614;13.830;2023-02-15T11:28:22;20.67;;;15.20;;
7213;SDS011;3648;50.614;13.830;2023-02-15T11:30:54;21.93;;;16.33;;
7213;SDS011;3648;50.614;13.830;2023-02-15T11:33:23;20.27;;;13.77;;
7213;SDS011;3648;50.614;13.830;2023-02-15T11:35:55;22.60;;;15.07;;
7213;SDS011;3648;50.614;13.830;2023-02-15T11:38:28;23.00;;;16.23;;
7213;SDS011;3648;50.614;13.830;2023-02-15T11:40:59;17.80;;;13.33;;
7213;SDS011;3648;50.614;13.830;2023-02-15T11:43:31;20.80;;;15.47;;
7213;SDS011;3648;50.614;13.830;2023-02-15T11:46:03;24.80;;;15.07;;
7213;SDS011;3648;50.614;13.830;2023-02-15T11:48:31;23.23;;;15.87;;
7213;SDS011;3648;50.614;13.830;2023-02-15T11:51:00;20.47;;;14.70;;
7213;SDS011;3648;50.614;13.830;2023-02-15T11:53:31;21.57;;;14.23;;
7213;SDS011;3648;50.614;13.830;2023-02-15T11:55:59;18.50;;;13.97;;
7213;SDS011;3648;50.614;13.830;2023-02-15T11:58:30;19.43;;;14.23;;
7213;SDS011;3648;50.614;13.830;2023-02-15T12:01:02;20.07;;;15.17;;
7213;SDS011;3648;50.614;13.830;2023-02-15T12:03:41;21.73;;;15.53;;
7213;SDS011;3648;50.614;13.830;2023-02-15T12:06:16;23.57;;;15.40;;
7213;SDS011;3648;50.614;13.830;2023-02-15T12:08:53;27.73;;;15.47;;
7213;SDS011;3648;50.614;13.830;2023-02-15T12:11:27;20.97;;;14.73;;
7213;SDS011;3648;50.614;13.830;2023-02-15T12:14:00;21.93;;;16.50;;
7213;SDS011;3648;50.614;13.830;2023-02-15T12:16:32;23.60;;;16.50;;
7213;SDS011;3648;50.614;13.830;2023-02-15T12:19:10;23.47;;;16.00;;
7213;SDS011;3648;50.614;13.830;2023-02-15T12:21:52;26.93;;;18.60;;
7213;SDS011;3648;50.614;13.830;2023-02-15T12:24:20;30.87;;;21.53;;
7213;SDS011;3648;50.614;13.830;2023-02-15T12:26:55;26.13;;;18.17;;
7213;SDS011;3648;50.614;13.830;2023-02-15T12:29:25;31.67;;;22.07;;
7213;SDS011;3648;50.614;13.830;2023-02-15T12:31:55;24.87;;;16.87;;
7213;SDS011;3648;50.614;13.830;2023-02-15T12:34:25;32.30;;;20.93;;
7213;SDS011;3648;50.614;13.830;2023-02-15T12:36:57;29.80;;;21.07;;
7213;SDS011;3648;50.614;13.830;2023-02-15T12:39:28;32.60;;;23.03;;
7213;SDS011;3648;50.614;13.830;2023-02-15T12:41:57;29.57;;;19.73;;
7213;SDS011;3648;50.614;13.830;2023-02-15T12:44:28;34.93;;;22.37;;
7213;SDS011;3648;50.614;13.830;2023-02-15T12:46:57;35.13;;;20.60;;
7213;SDS011;3648;50.614;13.830;2023-02-15T12:49:26;42.73;;;25.20;;
7213;SDS011;3648;50.614;13.830;2023-02-15T12:51:55;43.60;;;23.87;;
7213;SDS011;3648;50.614;13.830;2023-02-15T12:54:38;37.63;;;21.87;;
7213;SDS011;3648;50.614;13.830;2023-02-15T12:57:13;29.90;;;19.67;;
7213;SDS011;3648;50.614;13.830;2023-02-15T12:59:50;28.53;;;18.10;;
7213;SDS011;3648;50.614;13.830;2023-02-15T13:02:20;28.83;;;17.73;;
7213;SDS011;3648;50.614;13.830;2023-02-15T13:04:50;25.70;;;17.33;;
7213;SDS011;3648;50.614;13.830;2023-02-15T13:07:19;27.77;;;17.67;;
7213;SDS011;3648;50.614;13.830;2023-02-15T13:09:47;30.07;;;18.93;;
7213;SDS011;3648;50.614;13.830;2023-02-15T13:12:18;26.93;;;17.97;;
7213;SDS011;3648;50.614;13.830;2023-02-15T13:14:50;26.13;;;17.30;;
7213;SDS011;3648;50.614;13.830;2023-02-15T13:17:18;28.03;;;19.93;;
7213;SDS011;3648;50.614;13.830;2023-02-15T13:19:50;27.57;;;18.47;;
7213;SDS011;3648;50.614;13.830;2023-02-15T13:22:21;27.93;;;16.87;;
7213;SDS011;3648;50.614;13.830;2023-02-15T13:24:53;24.30;;;17.47;;
7213;SDS011;3648;50.614;13.830;2023-02-15T13:27:35;27.70;;;18.07;;
7213;SDS011;3648;50.614;13.830;2023-02-15T13:30:08;27.20;;;17.90;;
7213;SDS011;3648;50.614;13.830;2023-02-15T13:32:50;26.03;;;18.00;;
7213;SDS011;3648;50.614;13.830;2023-02-15T13:35:20;28.40;;;19.20;;
7213;SDS011;3648;50.614;13.830;2023-02-15T13:37:57;26.70;;;17.97;;
7213;SDS011;3648;50.614;13.830;2023-02-15T13:40:43;28.57;;;19.33;;
7213;SDS011;3648;50.614;13.830;2023-02-15T13:43:20;35.07;;;23.37;;
7213;SDS011;3648;50.614;13.830;2023-02-15T13:45:56;31.60;;;20.27;;
7213;SDS011;3648;50.614;13.830;2023-02-15T13:48:37;29.73;;;20.80;;
7213;SDS011;3648;50.614;13.830;2023-02-15T13:51:13;29.63;;;20.57;;
7213;SDS011;3648;50.614;13.830;2023-02-15T13:53:55;34.37;;;21.37;;
7213;SDS011;3648;50.614;13.830;2023-02-15T13:56:47;35.43;;;23.03;;
7213;SDS011;3648;50.614;13.830;2023-02-15T13:59:29;30.90;;;22.30;;
7213;SDS011;3648;50.614;13.830;2023-02-15T14:02:14;37.33;;;25.33;;
7213;SDS011;3648;50.614;13.830;2023-02-15T14:07:56;33.23;;;21.17;;
7213;SDS011;3648;50.614;13.830;2023-02-15T14:10:40;37.43;;;25.37;;
7213;SDS011;3648;50.614;13.830;2023-02-15T14:16:20;39.93;;;23.97;;
7213;SDS011;3648;50.614;13.830;2023-02-15T14:18:59;41.80;;;27.07;;
7213;SDS011;3648;50.614;13.830;2023-02-15T14:21:43;36.87;;;23.37;;
7213;SDS011;3648;50.614;13.830;2023-02-15T14:24:18;40.20;;;25.73;;
7213;SDS011;3648;50.614;13.830;2023-02-15T14:26:59;36.57;;;23.33;;
7213;SDS011;3648;50.614;13.830;2023-02-15T14:29:49;32.17;;;21.47;;
7213;SDS011;3648;50.614;13.830;2023-02-15T14:32:21;34.37;;;21.50;;
7213;SDS011;3648;50.614;13.830;2023-02-15T14:35:01;34.80;;;21.47;;
7213;SDS011;3648;50.614;13.830;2023-02-15T14:37:41;31.40;;;21.60;;
7213;SDS011;3648;50.614;13.830;2023-02-15T14:40:17;31.10;;;20.93;;
7213;SDS011;3648;50.614;13.830;2023-02-15T14:43:17;32.43;;;19.87;;
7213;SDS011;3648;50.614;13.830;2023-02-15T14:45:52;28.97;;;19.80;;
7213;SDS011;3648;50.614;13.830;2023-02-15T14:48:21;44.23;;;25.90;;
7213;SDS011;3648;50.614;13.830;2023-02-15T14:50:52;35.20;;;22.67;;
7213;SDS011;3648;50.614;13.830;2023-02-15T14:53:23;47.77;;;28.70;;
7213;SDS011;3648;50.614;13.830;2023-02-15T14:56:16;41.47;;;26.10;;
7213;SDS011;3648;50.614;13.830;2023-02-15T14:58:57;43.63;;;27.43;;
7213;SDS011;3648;50.614;13.830;2023-02-15T15:01:27;37.00;;;22.63;;
7213;SDS011;3648;50.614;13.830;2023-02-15T15:03:57;46.73;;;28.10;;
7213;SDS011;3648;50.614;13.830;2023-02-15T15:06:26;39.33;;;24.10;;
7213;SDS011;3648;50.614;13.830;2023-02-15T15:08:58;36.37;;;22.60;;
7213;SDS011;3648;50.614;13.830;2023-02-15T15:11:38;35.50;;;21.40;;
7213;SDS011;3648;50.614;13.830;2023-02-15T15:14:09;36.03;;;21.53;;
7213;SDS011;3648;50.614;13.830;2023-02-15T15:16:59;40.10;;;23.70;;